PWSweather.com
Personal Weather Stations
Station Observations
SELKIRK1
Ontario, Selkirk, ON N0A 1P0

OntarioSelkirk, ON N0A 1P0

Lat: 42.8083652, Lon: -79.94971040000001

Elevation: 583

Station Type: Acurite 5 in 1

http://gavinsurf.com

High Low Average
Temperature 81.3°F27.4°C 55.4°F13.0°C 70.1°F21.2°C
Dew Point 70.7°F21.5°C 55.1°F12.8°C 65.1°F18.4°C
Winds 6.9 mph 11.1 kmh Calm Calm 3.0 mph SSE4.8 kmh SSE
Wind Gusts 6.9 mph11.1 kmh -- 3.0 mph4.8 kmh
Humidity 99% 66% 85%
Pressure 31.89 in1079.9 mb 31.51 in1067.1 mb -
Precipitation 0.00 in0.0 mm - -
Hour Temp Dew Point Humidity Winds Wind Gusts Pressure Precip Precip Rate Daily Precip Total
12:00 AM 61.2°F16.2°C 59.1°F15.1°C 93% 2.3 mph NNE3.7 kmh NNE 3.5 mph5.6 kmh 31.69 in1073.1 mb - 0.00 in0.0 mm 0.00 in0.0 mm
12:10 AM 61.0°F16.1°C 58.9°F14.9°C 93% 3.5 mph NNE5.6 kmh NNE 4.6 mph7.4 kmh 31.69 in1073.1 mb - 0.00 in0.0 mm 0.00 in0.0 mm
12:15 AM 61.0°F16.1°C 59.2°F15.1°C 94% 4.6 mph NNE7.4 kmh NNE 5.8 mph9.3 kmh 31.69 in1073.1 mb - 0.00 in0.0 mm 0.00 in0.0 mm
12:20 AM 61.0°F16.1°C 59.2°F15.1°C 94% 4.6 mph N7.4 kmh N 4.6 mph7.4 kmh 31.69 in1073.1 mb - 0.00 in0.0 mm 0.00 in0.0 mm
12:25 AM 60.8°F16.0°C 59.0°F15.0°C 94% 2.3 mph NNE3.7 kmh NNE 2.3 mph3.7 kmh 31.69 in1073.1 mb - 0.00 in0.0 mm 0.00 in0.0 mm
12:30 AM 60.6°F15.9°C 58.5°F14.7°C 93% Calm Calm -- 31.69 in1073.1 mb - 0.00 in0.0 mm 0.00 in0.0 mm
12:35 AM 60.6°F15.9°C 58.5°F14.7°C 93% 1.2 mph NE1.9 kmh NE 1.2 mph1.9 kmh 31.69 in1073.1 mb - 0.00 in0.0 mm 0.00 in0.0 mm
12:40 AM 60.6°F15.9°C 58.5°F14.7°C 93% 1.2 mph NE1.9 kmh NE 2.3 mph3.7 kmh 31.69 in1073.1 mb - 0.00 in0.0 mm 0.00 in0.0 mm
12:45 AM 60.6°F15.9°C 58.2°F14.6°C 92% Calm Calm -- 31.69 in1073.1 mb - 0.00 in0.0 mm 0.00 in0.0 mm
12:50 AM 60.6°F15.9°C 58.2°F14.6°C 92% 3.5 mph N5.6 kmh N 3.5 mph5.6 kmh 31.69 in1073.1 mb - 0.00 in0.0 mm 0.00 in0.0 mm
12:55 AM 60.5°F15.8°C 58.7°F14.8°C 94% 4.6 mph N7.4 kmh N 4.6 mph7.4 kmh 31.69 in1073.1 mb - 0.00 in0.0 mm 0.00 in0.0 mm
01:00 AM 60.1°F15.6°C 58.6°F14.8°C 95% 3.5 mph N5.6 kmh N 4.6 mph7.4 kmh 31.69 in1073.1 mb - 0.00 in0.0 mm 0.00 in0.0 mm
01:10 AM 59.5°F15.3°C 58.3°F14.6°C 96% 4.6 mph N7.4 kmh N 5.8 mph9.3 kmh 31.69 in1073.1 mb - 0.00 in0.0 mm 0.00 in0.0 mm
01:15 AM 59.1°F15.1°C 58.2°F14.6°C 97% 5.8 mph N9.3 kmh N 5.8 mph9.3 kmh 31.69 in1073.1 mb - 0.00 in0.0 mm 0.00 in0.0 mm
01:20 AM 58.8°F14.9°C 58.2°F14.6°C 98% 4.6 mph N7.4 kmh N 5.8 mph9.3 kmh 31.69 in1073.1 mb - 0.00 in0.0 mm 0.00 in0.0 mm
01:25 AM 58.7°F14.8°C 58.1°F14.5°C 98% 3.5 mph N5.6 kmh N 3.5 mph5.6 kmh 31.69 in1073.1 mb - 0.00 in0.0 mm 0.00 in0.0 mm
01:30 AM 58.7°F14.8°C 58.1°F14.5°C 98% 3.5 mph N5.6 kmh N 3.5 mph5.6 kmh 31.69 in1073.1 mb - 0.00 in0.0 mm 0.00 in0.0 mm
01:35 AM 58.5°F14.7°C 57.9°F14.4°C 98% 3.5 mph N5.6 kmh N 3.5 mph5.6 kmh 31.69 in1073.1 mb - 0.00 in0.0 mm 0.00 in0.0 mm
01:40 AM 58.5°F14.7°C 57.9°F14.4°C 98% 3.5 mph N5.6 kmh N 3.5 mph5.6 kmh 31.69 in1073.1 mb - 0.00 in0.0 mm 0.00 in0.0 mm
01:45 AM 58.5°F14.7°C 57.9°F14.4°C 98% 2.3 mph N3.7 kmh N 2.3 mph3.7 kmh 31.69 in1073.1 mb - 0.00 in0.0 mm 0.00 in0.0 mm
01:50 AM 58.3°F14.6°C 57.7°F14.3°C 98% 3.5 mph N5.6 kmh N 3.5 mph5.6 kmh 31.69 in1073.1 mb - 0.00 in0.0 mm 0.00 in0.0 mm
01:55 AM 58.3°F14.6°C 57.4°F14.1°C 97% 3.5 mph NNE5.6 kmh NNE 3.5 mph5.6 kmh 31.69 in1073.1 mb - 0.00 in0.0 mm 0.00 in0.0 mm
02:00 AM 58.3°F14.6°C 57.4°F14.1°C 97% 4.6 mph N7.4 kmh N 4.6 mph7.4 kmh 31.69 in1073.1 mb - 0.00 in0.0 mm 0.00 in0.0 mm
02:10 AM 58.4°F14.7°C 57.9°F14.4°C 98% 5.8 mph N9.3 kmh N 5.8 mph9.3 kmh 31.69 in1073.1 mb - 0.00 in0.0 mm 0.00 in0.0 mm
02:15 AM 58.1°F14.5°C 57.5°F14.2°C 98% 5.8 mph N9.3 kmh N 5.8 mph9.3 kmh 31.69 in1073.1 mb - 0.00 in0.0 mm 0.00 in0.0 mm
02:20 AM 57.9°F14.4°C 57.6°F14.2°C 99% 6.9 mph N11.1 kmh N 6.9 mph11.1 kmh 31.69 in1073.1 mb - 0.00 in0.0 mm 0.00 in0.0 mm
02:25 AM 57.9°F14.4°C 57.6°F14.2°C 99% 5.8 mph N9.3 kmh N 5.8 mph9.3 kmh 31.69 in1073.1 mb - 0.00 in0.0 mm 0.00 in0.0 mm
02:30 AM 57.6°F14.2°C 57.4°F14.1°C 99% 5.8 mph N9.3 kmh N 5.8 mph9.3 kmh 31.69 in1073.1 mb - 0.00 in0.0 mm 0.00 in0.0 mm
02:35 AM 57.6°F14.2°C 57.3°F14.1°C 99% 5.8 mph N9.3 kmh N 5.8 mph9.3 kmh 31.69 in1073.1 mb - 0.00 in0.0 mm 0.00 in0.0 mm
02:40 AM 57.6°F14.2°C 57.3°F14.1°C 99% 3.5 mph NNE5.6 kmh NNE 3.5 mph5.6 kmh 31.69 in1073.1 mb - 0.00 in0.0 mm 0.00 in0.0 mm
02:45 AM 57.6°F14.2°C 57.3°F14.1°C 99% 3.5 mph NNE5.6 kmh NNE 4.6 mph7.4 kmh 31.69 in1073.1 mb - 0.00 in0.0 mm 0.00 in0.0 mm
02:50 AM 57.6°F14.2°C 57.3°F14.1°C 99% 3.5 mph N5.6 kmh N 3.5 mph5.6 kmh 31.69 in1073.1 mb - 0.00 in0.0 mm 0.00 in0.0 mm
02:55 AM 57.6°F14.2°C 57.3°F14.1°C 99% 3.5 mph N5.6 kmh N 3.5 mph5.6 kmh 31.69 in1073.1 mb - 0.00 in0.0 mm 0.00 in0.0 mm
03:00 AM 57.6°F14.2°C 57.3°F14.1°C 99% 3.5 mph N5.6 kmh N 4.6 mph7.4 kmh 31.69 in1073.1 mb - 0.00 in0.0 mm 0.00 in0.0 mm
03:10 AM 57.3°F14.1°C 56.7°F13.7°C 98% 4.6 mph N7.4 kmh N 5.8 mph9.3 kmh 31.69 in1073.1 mb - 0.00 in0.0 mm 0.00 in0.0 mm
03:15 AM 57.0°F13.9°C 56.7°F13.7°C 99% 5.8 mph NNE9.3 kmh NNE 5.8 mph9.3 kmh 31.69 in1073.1 mb - 0.00 in0.0 mm 0.00 in0.0 mm
03:20 AM 56.9°F13.8°C 56.6°F13.7°C 99% 4.6 mph N7.4 kmh N 5.8 mph9.3 kmh 31.69 in1073.1 mb - 0.00 in0.0 mm 0.00 in0.0 mm
03:25 AM 56.7°F13.7°C 56.4°F13.6°C 99% 5.8 mph N9.3 kmh N 5.8 mph9.3 kmh 31.69 in1073.1 mb - 0.00 in0.0 mm 0.00 in0.0 mm
03:30 AM 56.7°F13.7°C 56.4°F13.6°C 99% 4.6 mph N7.4 kmh N 4.6 mph7.4 kmh 31.69 in1073.1 mb - 0.00 in0.0 mm 0.00 in0.0 mm
03:35 AM 56.7°F13.7°C 56.4°F13.6°C 99% 4.6 mph NNE7.4 kmh NNE 4.6 mph7.4 kmh 31.69 in1073.1 mb - 0.00 in0.0 mm 0.00 in0.0 mm
03:40 AM 56.7°F13.7°C 56.4°F13.6°C 99% 4.6 mph N7.4 kmh N 4.6 mph7.4 kmh 31.69 in1073.1 mb - 0.00 in0.0 mm 0.00 in0.0 mm
03:45 AM 56.9°F13.8°C 56.3°F13.5°C 98% 4.6 mph N7.4 kmh N 4.6 mph7.4 kmh 31.69 in1073.1 mb - 0.00 in0.0 mm 0.00 in0.0 mm
03:50 AM 56.9°F13.8°C 56.3°F13.5°C 98% 4.6 mph NNE7.4 kmh NNE 3.5 mph5.6 kmh 31.69 in1073.1 mb - 0.00 in0.0 mm 0.00 in0.0 mm
03:55 AM 56.9°F13.8°C 56.3°F13.5°C 98% 2.3 mph NNE3.7 kmh NNE 2.3 mph3.7 kmh 31.69 in1073.1 mb - 0.00 in0.0 mm 0.00 in0.0 mm
04:00 AM 57.0°F13.9°C 56.1°F13.4°C 97% Calm Calm 1.2 mph1.9 kmh 31.69 in1073.1 mb - 0.00 in0.0 mm 0.00 in0.0 mm
04:10 AM 57.3°F14.1°C 56.4°F13.6°C 97% 4.6 mph N7.4 kmh N 4.6 mph7.4 kmh 31.69 in1073.1 mb - 0.00 in0.0 mm 0.00 in0.0 mm
04:15 AM 57.4°F14.1°C 56.2°F13.4°C 96% 4.6 mph N7.4 kmh N 5.8 mph9.3 kmh 31.69 in1073.1 mb - 0.00 in0.0 mm 0.00 in0.0 mm
04:20 AM 57.0°F13.9°C 56.1°F13.4°C 97% 5.8 mph N9.3 kmh N 5.8 mph9.3 kmh 31.69 in1073.1 mb - 0.00 in0.0 mm 0.00 in0.0 mm
04:25 AM 56.5°F13.6°C 55.9°F13.3°C 98% 5.8 mph N9.3 kmh N 5.8 mph9.3 kmh 31.69 in1073.1 mb - 0.00 in0.0 mm 0.00 in0.0 mm
04:30 AM 56.0°F13.3°C 55.7°F13.2°C 99% 6.9 mph NNE11.1 kmh NNE 6.9 mph11.1 kmh 31.69 in1073.1 mb - 0.00 in0.0 mm 0.00 in0.0 mm
04:35 AM 56.0°F13.3°C 55.7°F13.2°C 99% 6.9 mph N11.1 kmh N 6.9 mph11.1 kmh 31.69 in1073.1 mb - 0.00 in0.0 mm 0.00 in0.0 mm
04:40 AM 56.0°F13.3°C 55.7°F13.2°C 99% 5.8 mph N9.3 kmh N 5.8 mph9.3 kmh 31.69 in1073.1 mb - 0.00 in0.0 mm 0.00 in0.0 mm
04:45 AM 55.8°F13.2°C 55.5°F13.1°C 99% 4.6 mph N7.4 kmh N 5.8 mph9.3 kmh 31.69 in1073.1 mb - 0.00 in0.0 mm 0.00 in0.0 mm
04:50 AM 55.8°F13.2°C 55.5°F13.1°C 99% 2.3 mph NNE3.7 kmh NNE 3.5 mph5.6 kmh 31.69 in1073.1 mb - 0.00 in0.0 mm 0.00 in0.0 mm
04:55 AM 55.4°F13.0°C 55.1°F12.8°C 99% 4.6 mph N7.4 kmh N 4.6 mph7.4 kmh 31.69 in1073.1 mb - 0.00 in0.0 mm 0.00 in0.0 mm
05:00 AM 55.4°F13.0°C 55.1°F12.8°C 99% 5.8 mph N9.3 kmh N 5.8 mph9.3 kmh 31.69 in1073.1 mb - 0.00 in0.0 mm 0.00 in0.0 mm
05:10 AM 56.0°F13.3°C 55.7°F13.2°C 99% 4.6 mph N7.4 kmh N 5.8 mph9.3 kmh 31.69 in1073.1 mb - 0.00 in0.0 mm 0.00 in0.0 mm
05:15 AM 56.7°F13.7°C 56.4°F13.6°C 99% 6.9 mph NNE11.1 kmh NNE 6.9 mph11.1 kmh 31.69 in1073.1 mb - 0.00 in0.0 mm 0.00 in0.0 mm
05:20 AM 56.5°F13.6°C 56.2°F13.4°C 99% 5.8 mph N9.3 kmh N 5.8 mph9.3 kmh 31.69 in1073.1 mb - 0.00 in0.0 mm 0.00 in0.0 mm
05:25 AM 56.9°F13.8°C 56.6°F13.7°C 99% 4.6 mph N7.4 kmh N 4.6 mph7.4 kmh 31.69 in1073.1 mb - 0.00 in0.0 mm 0.00 in0.0 mm
05:30 AM 57.2°F14.0°C 56.9°F13.8°C 99% 4.6 mph N7.4 kmh N 5.8 mph9.3 kmh 31.69 in1073.1 mb - 0.00 in0.0 mm 0.00 in0.0 mm
05:35 AM 57.6°F14.2°C 57.3°F14.1°C 99% 4.6 mph NNE7.4 kmh NNE 4.6 mph7.4 kmh 31.69 in1073.1 mb - 0.00 in0.0 mm 0.00 in0.0 mm
05:40 AM 57.6°F14.2°C 57.3°F14.1°C 99% 3.5 mph NNE5.6 kmh NNE 4.6 mph7.4 kmh 31.69 in1073.1 mb - 0.00 in0.0 mm 0.00 in0.0 mm
05:45 AM 57.9°F14.4°C 57.6°F14.2°C 99% 4.6 mph N7.4 kmh N 4.6 mph7.4 kmh 31.69 in1073.1 mb - 0.00 in0.0 mm 0.00 in0.0 mm
05:50 AM 57.9°F14.4°C 57.6°F14.2°C 99% 3.5 mph N5.6 kmh N 4.6 mph7.4 kmh 31.69 in1073.1 mb - 0.00 in0.0 mm 0.00 in0.0 mm
05:55 AM 58.1°F14.5°C 57.8°F14.3°C 99% 4.6 mph N7.4 kmh N 5.8 mph9.3 kmh 31.69 in1073.1 mb - 0.00 in0.0 mm 0.00 in0.0 mm
06:00 AM 58.5°F14.7°C 58.2°F14.6°C 99% 5.8 mph N9.3 kmh N 5.8 mph9.3 kmh 31.69 in1073.1 mb - 0.00 in0.0 mm 0.00 in0.0 mm
06:10 AM 58.5°F14.7°C 58.2°F14.6°C 99% 4.6 mph N7.4 kmh N 4.6 mph7.4 kmh 31.69 in1073.1 mb - 0.00 in0.0 mm 0.00 in0.0 mm
06:15 AM 58.5°F14.7°C 58.2°F14.6°C 99% 3.5 mph 5.6 kmh 4.6 mph7.4 kmh 31.69 in1073.1 mb - 0.00 in0.0 mm 0.00 in0.0 mm
06:20 AM 59.0°F15.0°C 58.7°F14.8°C 99% 3.5 mph NNE5.6 kmh NNE 3.5 mph5.6 kmh 31.69 in1073.1 mb - 0.00 in0.0 mm 0.00 in0.0 mm
06:25 AM 59.4°F15.2°C 59.1°F15.1°C 99% 3.5 mph N5.6 kmh N 5.8 mph9.3 kmh 31.69 in1073.1 mb - 0.00 in0.0 mm 0.00 in0.0 mm
06:30 AM 59.7°F15.4°C 59.4°F15.2°C 99% 3.5 mph NNE5.6 kmh NNE 4.6 mph7.4 kmh 31.69 in1073.1 mb - 0.00 in0.0 mm 0.00 in0.0 mm
06:35 AM 60.5°F15.8°C 60.2°F15.7°C 99% 2.3 mph NNE3.7 kmh NNE 2.3 mph3.7 kmh 31.69 in1073.1 mb - 0.00 in0.0 mm 0.00 in0.0 mm
06:40 AM 61.3°F16.3°C 61.0°F16.1°C 99% 3.5 mph NNE5.6 kmh NNE 3.5 mph5.6 kmh 31.69 in1073.1 mb - 0.00 in0.0 mm 0.00 in0.0 mm
06:45 AM 61.7°F16.5°C 61.4°F16.3°C 99% 3.5 mph N5.6 kmh N 3.5 mph5.6 kmh 31.69 in1073.1 mb - 0.00 in0.0 mm 0.00 in0.0 mm
06:50 AM 62.3°F16.8°C 62.1°F16.7°C 99% 2.3 mph N3.7 kmh N 4.6 mph7.4 kmh 31.69 in1073.1 mb - 0.00 in0.0 mm 0.00 in0.0 mm
06:55 AM 62.7°F17.1°C 62.4°F16.9°C 99% 3.5 mph NNE5.6 kmh NNE 4.6 mph7.4 kmh 31.69 in1073.1 mb - 0.00 in0.0 mm 0.00 in0.0 mm
07:00 AM 63.5°F17.5°C 63.2°F17.3°C 99% 3.5 mph NE5.6 kmh NE 3.5 mph5.6 kmh 31.69 in1073.1 mb - 0.00 in0.0 mm 0.00 in0.0 mm
07:10 AM 64.7°F18.2°C 63.8°F17.7°C 97% 2.3 mph NW3.7 kmh NW 4.6 mph7.4 kmh 31.69 in1073.1 mb - 0.00 in0.0 mm 0.00 in0.0 mm
07:15 AM 65.9°F18.8°C 64.4°F18.0°C 95% 2.3 mph NNE3.7 kmh NNE 2.3 mph3.7 kmh 31.69 in1073.1 mb - 0.00 in0.0 mm 0.00 in0.0 mm
07:20 AM 66.5°F19.2°C 64.7°F18.2°C 94% 2.3 mph NE3.7 kmh NE 2.3 mph3.7 kmh 31.69 in1073.1 mb - 0.00 in0.0 mm 0.00 in0.0 mm
07:25 AM 67.8°F19.9°C 65.0°F18.3°C 91% 2.3 mph NE3.7 kmh NE 2.3 mph3.7 kmh 31.69 in1073.1 mb - 0.00 in0.0 mm 0.00 in0.0 mm
07:30 AM 68.9°F20.5°C 65.5°F18.6°C 89% 1.2 mph NE1.9 kmh NE 3.5 mph5.6 kmh 31.69 in1073.1 mb - 0.00 in0.0 mm 0.00 in0.0 mm
07:35 AM 69.1°F20.6°C 65.4°F18.6°C 88% 2.3 mph ENE3.7 kmh ENE 1.2 mph1.9 kmh 31.69 in1073.1 mb - 0.00 in0.0 mm 0.00 in0.0 mm
07:40 AM 69.5°F20.8°C 65.5°F18.6°C 87% 1.2 mph NE1.9 kmh NE 2.3 mph3.7 kmh 31.69 in1073.1 mb - 0.00 in0.0 mm 0.00 in0.0 mm
07:45 AM 70.5°F21.4°C 65.8°F18.8°C 85% 2.3 mph NE3.7 kmh NE 2.3 mph3.7 kmh 31.69 in1073.1 mb - 0.00 in0.0 mm 0.00 in0.0 mm
07:50 AM 70.7°F21.5°C 66.0°F18.9°C 85% 2.3 mph NE3.7 kmh NE 2.3 mph3.7 kmh 31.69 in1073.1 mb - 0.00 in0.0 mm 0.00 in0.0 mm
07:55 AM 70.9°F21.6°C 65.1°F18.4°C 82% 2.3 mph NE3.7 kmh NE 2.3 mph3.7 kmh 31.69 in1073.1 mb - 0.00 in0.0 mm 0.00 in0.0 mm
08:00 AM 71.5°F21.9°C 65.8°F18.8°C 82% 2.3 mph NNE3.7 kmh NNE 4.6 mph7.4 kmh 31.69 in1073.1 mb - 0.00 in0.0 mm 0.00 in0.0 mm
08:10 AM 72.2°F22.3°C 65.7°F18.7°C 80% 2.3 mph NE3.7 kmh NE 2.3 mph3.7 kmh 31.69 in1073.1 mb - 0.00 in0.0 mm 0.00 in0.0 mm
08:15 AM 72.5°F22.5°C 64.9°F18.3°C 77% 3.5 mph NE5.6 kmh NE 3.5 mph5.6 kmh 31.69 in1073.1 mb - 0.00 in0.0 mm 0.00 in0.0 mm
08:20 AM 73.1°F22.8°C 65.4°F18.6°C 77% 2.3 mph N3.7 kmh N 4.6 mph7.4 kmh 31.69 in1073.1 mb - 0.00 in0.0 mm 0.00 in0.0 mm
08:25 AM 73.2°F22.9°C 65.5°F18.6°C 77% 3.5 mph NNE5.6 kmh NNE 3.5 mph5.6 kmh 31.69 in1073.1 mb - 0.00 in0.0 mm 0.00 in0.0 mm
08:30 AM 73.2°F22.9°C 65.9°F18.8°C 78% 2.3 mph ENE3.7 kmh ENE 2.3 mph3.7 kmh 31.69 in1073.1 mb - 0.00 in0.0 mm 0.00 in0.0 mm
08:35 AM 73.6°F23.1°C 66.0°F18.9°C 77% 2.3 mph NE3.7 kmh NE 4.6 mph7.4 kmh 31.69 in1073.1 mb - 0.00 in0.0 mm 0.00 in0.0 mm
08:40 AM 73.8°F23.2°C 65.4°F18.6°C 75% 3.5 mph NNE5.6 kmh NNE 4.6 mph7.4 kmh 31.69 in1073.1 mb - 0.00 in0.0 mm 0.00 in0.0 mm
08:45 AM 74.0°F23.3°C 65.6°F18.7°C 75% 2.3 mph NE3.7 kmh NE 5.8 mph9.3 kmh 31.69 in1073.1 mb - 0.00 in0.0 mm 0.00 in0.0 mm
08:50 AM 74.1°F23.4°C 65.3°F18.5°C 74% 3.5 mph NE5.6 kmh NE 3.5 mph5.6 kmh 31.69 in1073.1 mb - 0.00 in0.0 mm 0.00 in0.0 mm
08:55 AM 74.2°F23.4°C 66.2°F19.0°C 76% 2.3 mph NE3.7 kmh NE 3.5 mph5.6 kmh 31.69 in1073.1 mb - 0.00 in0.0 mm 0.00 in0.0 mm
09:00 AM 74.5°F23.6°C 66.5°F19.2°C 76% 2.3 mph NE3.7 kmh NE 2.3 mph3.7 kmh 31.69 in1073.1 mb - 0.00 in0.0 mm 0.00 in0.0 mm
09:10 AM 75.2°F24.0°C 67.1°F19.5°C 76% 2.3 mph NE3.7 kmh NE 2.3 mph3.7 kmh 31.69 in1073.1 mb - 0.00 in0.0 mm 0.00 in0.0 mm
09:15 AM 74.9°F23.8°C 66.4°F19.1°C 75% 2.3 mph NE3.7 kmh NE 2.3 mph3.7 kmh 31.69 in1073.1 mb - 0.00 in0.0 mm 0.00 in0.0 mm
09:20 AM 75.0°F23.9°C 66.5°F19.2°C 75% 2.3 mph E3.7 kmh E 2.3 mph3.7 kmh 31.69 in1073.1 mb - 0.00 in0.0 mm 0.00 in0.0 mm
09:25 AM 74.7°F23.7°C 66.7°F19.3°C 76% 3.5 mph E5.6 kmh E 3.5 mph5.6 kmh 31.69 in1073.1 mb - 0.00 in0.0 mm 0.00 in0.0 mm
09:30 AM 74.8°F23.8°C 65.5°F18.6°C 73% 3.5 mph E5.6 kmh E 3.5 mph5.6 kmh 31.69 in1073.1 mb - 0.00 in0.0 mm 0.00 in0.0 mm
09:35 AM 74.9°F23.8°C 66.5°F19.2°C 75% 2.3 mph ENE3.7 kmh ENE 2.3 mph3.7 kmh 31.69 in1073.1 mb - 0.00 in0.0 mm 0.00 in0.0 mm
09:40 AM 75.0°F23.9°C 65.7°F18.7°C 73% 3.5 mph E5.6 kmh E 4.6 mph7.4 kmh 31.69 in1073.1 mb - 0.00 in0.0 mm 0.00 in0.0 mm
09:45 AM 75.3°F24.1°C 66.4°F19.1°C 74% 2.3 mph E3.7 kmh E 3.5 mph5.6 kmh 31.69 in1073.1 mb - 0.00 in0.0 mm 0.00 in0.0 mm
09:50 AM 75.4°F24.1°C 66.1°F18.9°C 73% 2.3 mph E3.7 kmh E 3.5 mph5.6 kmh 31.69 in1073.1 mb - 0.00 in0.0 mm 0.00 in0.0 mm
09:55 AM 75.8°F24.3°C 66.5°F19.2°C 73% 2.3 mph ENE3.7 kmh ENE 2.3 mph3.7 kmh 31.69 in1073.1 mb - 0.00 in0.0 mm 0.00 in0.0 mm
10:00 AM 75.6°F24.2°C 66.7°F19.3°C 74% 3.5 mph ENE5.6 kmh ENE 3.5 mph5.6 kmh 31.69 in1073.1 mb - 0.00 in0.0 mm 0.00 in0.0 mm
10:10 AM 75.9°F24.4°C 67.8°F19.9°C 76% 2.3 mph ESE3.7 kmh ESE 4.6 mph7.4 kmh 31.69 in1073.1 mb - 0.00 in0.0 mm 0.00 in0.0 mm
10:15 AM 76.2°F24.6°C 67.7°F19.8°C 75% 2.3 mph NE3.7 kmh NE 5.8 mph9.3 kmh 31.69 in1073.1 mb - 0.00 in0.0 mm 0.00 in0.0 mm
10:20 AM 76.6°F24.8°C 67.7°F19.8°C 74% 2.3 mph ENE3.7 kmh ENE 3.5 mph5.6 kmh 31.69 in1073.1 mb - 0.00 in0.0 mm 0.00 in0.0 mm
10:25 AM 76.7°F24.8°C 68.2°F20.1°C 75% 2.3 mph E3.7 kmh E 2.3 mph3.7 kmh 31.69 in1073.1 mb - 0.00 in0.0 mm 0.00 in0.0 mm
10:30 AM 76.6°F24.8°C 68.9°F20.5°C 77% 2.3 mph E3.7 kmh E 2.3 mph3.7 kmh 31.69 in1073.1 mb - 0.00 in0.0 mm 0.00 in0.0 mm
10:35 AM 77.1°F25.1°C 68.2°F20.1°C 74% 2.3 mph SE3.7 kmh SE 4.6 mph7.4 kmh 31.69 in1073.1 mb - 0.00 in0.0 mm 0.00 in0.0 mm
10:40 AM 77.2°F25.1°C 67.9°F19.9°C 73% 3.5 mph ESE5.6 kmh ESE 3.5 mph5.6 kmh 31.69 in1073.1 mb - 0.00 in0.0 mm 0.00 in0.0 mm
10:45 AM 77.4°F25.2°C 68.5°F20.3°C 74% 3.5 mph SSE5.6 kmh SSE 3.5 mph5.6 kmh 31.69 in1073.1 mb - 0.00 in0.0 mm 0.00 in0.0 mm
10:50 AM 77.2°F25.1°C 68.3°F20.2°C 74% 2.3 mph ESE3.7 kmh ESE 3.5 mph5.6 kmh 31.69 in1073.1 mb - 0.00 in0.0 mm 0.00 in0.0 mm
10:55 AM 77.7°F25.4°C 68.7°F20.4°C 74% 2.3 mph E3.7 kmh E 4.6 mph7.4 kmh 31.69 in1073.1 mb - 0.00 in0.0 mm 0.00 in0.0 mm
11:00 AM 77.7°F25.4°C 68.7°F20.4°C 74% 2.3 mph SE3.7 kmh SE 3.5 mph5.6 kmh 31.69 in1073.1 mb - 0.00 in0.0 mm 0.00 in0.0 mm
11:10 AM 78.4°F25.8°C 69.0°F20.6°C 73% 3.5 mph ESE5.6 kmh ESE 4.6 mph7.4 kmh 31.69 in1073.1 mb - 0.00 in0.0 mm 0.00 in0.0 mm
11:15 AM 78.5°F25.8°C 68.7°F20.4°C 72% 2.3 mph SSE3.7 kmh SSE 3.5 mph5.6 kmh 31.69 in1073.1 mb - 0.00 in0.0 mm 0.00 in0.0 mm
11:20 AM 78.7°F25.9°C 68.5°F20.3°C 71% 2.3 mph S3.7 kmh S 4.6 mph7.4 kmh 31.69 in1073.1 mb - 0.00 in0.0 mm 0.00 in0.0 mm
11:25 AM 78.8°F26.0°C 69.4°F20.8°C 73% 2.3 mph SE3.7 kmh SE 4.6 mph7.4 kmh 31.69 in1073.1 mb - 0.00 in0.0 mm 0.00 in0.0 mm
11:30 AM 79.4°F26.3°C 69.2°F20.7°C 71% 3.5 mph SSE5.6 kmh SSE 3.5 mph5.6 kmh 31.69 in1073.1 mb - 0.00 in0.0 mm 0.00 in0.0 mm
11:35 AM 78.5°F25.8°C 68.3°F20.2°C 71% 3.5 mph S5.6 kmh S 4.6 mph7.4 kmh 31.69 in1073.1 mb - 0.00 in0.0 mm 0.00 in0.0 mm
11:40 AM 79.1°F26.2°C 68.5°F20.3°C 70% 3.5 mph S5.6 kmh S 5.8 mph9.3 kmh 31.69 in1073.1 mb - 0.00 in0.0 mm 0.00 in0.0 mm
11:45 AM 78.9°F26.1°C 68.7°F20.4°C 71% 3.5 mph S5.6 kmh S 4.6 mph7.4 kmh 31.69 in1073.1 mb - 0.00 in0.0 mm 0.00 in0.0 mm
11:50 AM 78.7°F25.9°C 69.0°F20.6°C 72% 3.5 mph SSW5.6 kmh SSW 4.6 mph7.4 kmh 31.69 in1073.1 mb - 0.00 in0.0 mm 0.00 in0.0 mm
11:55 AM 79.2°F26.2°C 69.4°F20.8°C 72% 3.5 mph S5.6 kmh S 3.5 mph5.6 kmh 31.69 in1073.1 mb - 0.00 in0.0 mm 0.00 in0.0 mm
12:00 PM 79.1°F26.2°C 68.9°F20.5°C 71% 3.5 mph S5.6 kmh S 3.5 mph5.6 kmh 31.69 in1073.1 mb - 0.00 in0.0 mm 0.00 in0.0 mm
12:10 PM 79.3°F26.3°C 69.0°F20.6°C 71% 3.5 mph SSW5.6 kmh SSW 4.6 mph7.4 kmh 31.69 in1073.1 mb - 0.00 in0.0 mm 0.00 in0.0 mm
12:15 PM 79.3°F26.3°C 69.1°F20.6°C 71% 4.6 mph SSE7.4 kmh SSE 6.9 mph11.1 kmh 31.69 in1073.1 mb - 0.00 in0.0 mm 0.00 in0.0 mm
12:20 PM 79.1°F26.2°C 69.3°F20.7°C 72% 5.8 mph SSE9.3 kmh SSE 5.8 mph9.3 kmh 31.69 in1073.1 mb - 0.00 in0.0 mm 0.00 in0.0 mm
12:25 PM 78.8°F26.0°C 68.6°F20.3°C 71% 5.8 mph S9.3 kmh S 5.8 mph9.3 kmh 31.69 in1073.1 mb - 0.00 in0.0 mm 0.00 in0.0 mm
12:30 PM 79.0°F26.1°C 69.2°F20.7°C 72% 5.8 mph SW9.3 kmh SW 5.8 mph9.3 kmh 31.69 in1073.1 mb - 0.00 in0.0 mm 0.00 in0.0 mm
12:35 PM 79.0°F26.1°C 68.3°F20.2°C 70% 4.6 mph S7.4 kmh S 5.8 mph9.3 kmh 31.69 in1073.1 mb - 0.00 in0.0 mm 0.00 in0.0 mm
12:40 PM 79.2°F26.2°C 68.1°F20.1°C 69% 5.8 mph S9.3 kmh S 6.9 mph11.1 kmh 31.69 in1073.1 mb - 0.00 in0.0 mm 0.00 in0.0 mm
12:45 PM 79.5°F26.4°C 68.0°F20.0°C 68% 4.6 mph S7.4 kmh S 5.8 mph9.3 kmh 31.69 in1073.1 mb - 0.00 in0.0 mm 0.00 in0.0 mm
12:50 PM 80.4°F26.9°C 69.7°F20.9°C 70% 4.6 mph SSE7.4 kmh SSE 5.8 mph9.3 kmh 31.69 in1073.1 mb - 0.00 in0.0 mm 0.00 in0.0 mm
12:55 PM 80.5°F26.9°C 69.8°F21.0°C 70% 3.5 mph S5.6 kmh S 3.5 mph5.6 kmh 31.69 in1073.1 mb - 0.00 in0.0 mm 0.00 in0.0 mm
01:00 PM 80.3°F26.8°C 70.0°F21.1°C 71% 4.6 mph S7.4 kmh S 5.8 mph9.3 kmh 31.69 in1073.1 mb - 0.00 in0.0 mm 0.00 in0.0 mm
01:10 PM 79.8°F26.6°C 69.5°F20.8°C 71% 5.8 mph S9.3 kmh S 5.8 mph9.3 kmh 31.69 in1073.1 mb - 0.00 in0.0 mm 0.00 in0.0 mm
01:15 PM 79.7°F26.5°C 69.0°F20.6°C 70% 4.6 mph S7.4 kmh S 5.8 mph9.3 kmh 31.69 in1073.1 mb - 0.00 in0.0 mm 0.00 in0.0 mm
01:20 PM 79.5°F26.4°C 69.3°F20.7°C 71% 4.6 mph SSE7.4 kmh SSE 5.8 mph9.3 kmh 31.69 in1073.1 mb - 0.00 in0.0 mm 0.00 in0.0 mm
01:25 PM 79.4°F26.3°C 69.6°F20.9°C 72% 5.8 mph S9.3 kmh S 6.9 mph11.1 kmh 31.69 in1073.1 mb - 0.00 in0.0 mm 0.00 in0.0 mm
01:30 PM 79.5°F26.4°C 69.3°F20.7°C 71% 5.8 mph S9.3 kmh S 5.8 mph9.3 kmh 31.69 in1073.1 mb - 0.00 in0.0 mm 0.00 in0.0 mm
01:35 PM 79.5°F26.4°C 68.9°F20.5°C 70% 6.9 mph S11.1 kmh S 6.9 mph11.1 kmh 31.69 in1073.1 mb - 0.00 in0.0 mm 0.00 in0.0 mm
01:40 PM 79.7°F26.5°C 69.4°F20.8°C 71% 4.6 mph SSW7.4 kmh SSW 5.8 mph9.3 kmh 31.69 in1073.1 mb - 0.00 in0.0 mm 0.00 in0.0 mm
01:45 PM 79.8°F26.6°C 69.1°F20.6°C 70% 4.6 mph SSW7.4 kmh SSW 4.6 mph7.4 kmh 31.69 in1073.1 mb - 0.00 in0.0 mm 0.00 in0.0 mm
01:50 PM 80.1°F26.7°C 69.0°F20.6°C 69% 4.6 mph S7.4 kmh S 5.8 mph9.3 kmh 31.69 in1073.1 mb - 0.00 in0.0 mm 0.00 in0.0 mm
01:55 PM 80.1°F26.7°C 69.4°F20.8°C 70% 5.8 mph SSW9.3 kmh SSW 5.8 mph9.3 kmh 31.69 in1073.1 mb - 0.00 in0.0 mm 0.00 in0.0 mm
02:00 PM 79.5°F26.4°C 69.3°F20.7°C 71% 5.8 mph S9.3 kmh S 6.9 mph11.1 kmh 31.69 in1073.1 mb - 0.00 in0.0 mm 0.00 in0.0 mm
02:10 PM 80.2°F26.8°C 69.5°F20.8°C 70% 4.6 mph SSW7.4 kmh SSW 4.6 mph7.4 kmh 31.69 in1073.1 mb - 0.00 in0.0 mm 0.00 in0.0 mm
02:15 PM 80.8°F27.1°C 70.1°F21.2°C 70% 3.5 mph SW5.6 kmh SW 4.6 mph7.4 kmh 31.69 in1073.1 mb - 0.00 in0.0 mm 0.00 in0.0 mm
02:20 PM 80.6°F27.0°C 69.5°F20.8°C 69% 5.8 mph SSW9.3 kmh SSW 5.8 mph9.3 kmh 31.69 in1073.1 mb - 0.00 in0.0 mm 0.00 in0.0 mm
02:25 PM 79.9°F26.6°C 68.8°F20.4°C 69% 4.6 mph SSW7.4 kmh SSW 5.8 mph9.3 kmh 31.69 in1073.1 mb - 0.00 in0.0 mm 0.00 in0.0 mm
02:30 PM 79.7°F26.5°C 68.2°F20.1°C 68% 5.8 mph S9.3 kmh S 5.8 mph9.3 kmh 31.69 in1073.1 mb - 0.00 in0.0 mm 0.00 in0.0 mm
02:35 PM 80.5°F26.9°C 69.4°F20.8°C 69% 3.5 mph S5.6 kmh S 4.6 mph7.4 kmh 31.69 in1073.1 mb - 0.00 in0.0 mm 0.00 in0.0 mm
02:40 PM 80.9°F27.2°C 68.9°F20.5°C 67% 4.6 mph SW7.4 kmh SW 5.8 mph9.3 kmh 31.69 in1073.1 mb - 0.00 in0.0 mm 0.00 in0.0 mm
02:45 PM 80.9°F27.2°C 68.9°F20.5°C 67% 5.8 mph SW9.3 kmh SW 5.8 mph9.3 kmh 31.69 in1073.1 mb - 0.00 in0.0 mm 0.00 in0.0 mm
02:50 PM 80.4°F26.9°C 68.0°F20.0°C 66% 4.6 mph S7.4 kmh S 5.8 mph9.3 kmh 31.69 in1073.1 mb - 0.00 in0.0 mm 0.00 in0.0 mm
02:55 PM 80.4°F26.9°C 68.8°F20.4°C 68% 4.6 mph SW7.4 kmh SW 4.6 mph7.4 kmh 31.69 in1073.1 mb - 0.00 in0.0 mm 0.00 in0.0 mm
03:00 PM 81.2°F27.3°C 69.2°F20.7°C 67% 3.5 mph S5.6 kmh S 3.5 mph5.6 kmh 31.69 in1073.1 mb - 0.00 in0.0 mm 0.00 in0.0 mm
03:10 PM 81.3°F27.4°C 69.7°F20.9°C 68% 3.5 mph S5.6 kmh S 5.8 mph9.3 kmh 31.69 in1073.1 mb - 0.00 in0.0 mm 0.00 in0.0 mm
03:15 PM 80.8°F27.1°C 68.8°F20.4°C 67% 3.5 mph SW5.6 kmh SW 3.5 mph5.6 kmh 31.69 in1073.1 mb - 0.00 in0.0 mm 0.00 in0.0 mm
03:20 PM 81.3°F27.4°C 69.3°F20.7°C 67% 3.5 mph SSW5.6 kmh SSW 3.5 mph5.6 kmh 31.69 in1073.1 mb - 0.00 in0.0 mm 0.00 in0.0 mm
03:25 PM 81.1°F27.3°C 69.6°F20.9°C 68% 4.6 mph SSW7.4 kmh SSW 4.6 mph7.4 kmh 31.69 in1073.1 mb - 0.00 in0.0 mm 0.00 in0.0 mm
03:30 PM 80.8°F27.1°C 69.7°F20.9°C 69% 3.5 mph SW5.6 kmh SW 5.8 mph9.3 kmh 31.69 in1073.1 mb - 0.00 in0.0 mm 0.00 in0.0 mm
03:35 PM 80.4°F26.9°C 69.3°F20.7°C 69% 4.6 mph SW7.4 kmh SW 4.6 mph7.4 kmh 31.69 in1073.1 mb - 0.00 in0.0 mm 0.00 in0.0 mm
03:40 PM 80.4°F26.9°C 68.8°F20.4°C 68% 4.6 mph S7.4 kmh S 5.8 mph9.3 kmh 31.69 in1073.1 mb - 0.00 in0.0 mm 0.00 in0.0 mm
03:45 PM 80.3°F26.8°C 68.8°F20.4°C 68% 5.8 mph SW9.3 kmh SW 5.8 mph9.3 kmh 31.69 in1073.1 mb - 0.00 in0.0 mm 0.00 in0.0 mm
03:50 PM 80.5°F26.9°C 68.5°F20.3°C 67% 4.6 mph SW7.4 kmh SW 4.6 mph7.4 kmh 31.69 in1073.1 mb - 0.00 in0.0 mm 0.00 in0.0 mm
03:55 PM 80.4°F26.9°C 68.9°F20.5°C 68% 3.5 mph S5.6 kmh S 3.5 mph5.6 kmh 31.69 in1073.1 mb - 0.00 in0.0 mm 0.00 in0.0 mm
04:00 PM 80.8°F27.1°C 69.2°F20.7°C 68% 3.5 mph SW5.6 kmh SW 3.5 mph5.6 kmh 31.69 in1073.1 mb - 0.00 in0.0 mm 0.00 in0.0 mm
04:10 PM 81.1°F27.3°C 69.9°F21.1°C 69% 3.5 mph SSW5.6 kmh SSW 4.6 mph7.4 kmh 31.85 in1078.6 mb - 0.00 in0.0 mm 0.00 in0.0 mm
04:15 PM 81.2°F27.3°C 70.1°F21.2°C 69% 3.5 mph SSW5.6 kmh SSW 3.5 mph5.6 kmh 31.72 in1074.2 mb - 0.00 in0.0 mm 0.00 in0.0 mm
04:20 PM 80.3°F26.8°C 69.6°F20.9°C 70% 4.6 mph S7.4 kmh S 5.8 mph9.3 kmh 31.72 in1074.2 mb - 0.00 in0.0 mm 0.00 in0.0 mm
04:25 PM 79.5°F26.4°C 68.4°F20.2°C 69% 4.6 mph S7.4 kmh S 5.8 mph9.3 kmh 31.72 in1074.2 mb - 0.00 in0.0 mm 0.00 in0.0 mm
04:30 PM 79.1°F26.2°C 68.9°F20.5°C 71% 4.6 mph SSW7.4 kmh SSW 5.8 mph9.3 kmh 31.58 in1069.4 mb - 0.00 in0.0 mm 0.00 in0.0 mm
04:35 PM 80.3°F26.8°C 69.2°F20.7°C 69% 3.5 mph SW5.6 kmh SW 4.6 mph7.4 kmh 31.58 in1069.4 mb - 0.00 in0.0 mm 0.00 in0.0 mm
04:40 PM 80.1°F26.7°C 69.4°F20.8°C 70% 4.6 mph SW7.4 kmh SW 5.8 mph9.3 kmh 31.55 in1068.4 mb - 0.00 in0.0 mm 0.00 in0.0 mm
04:45 PM 80.3°F26.8°C 69.6°F20.9°C 70% 3.5 mph SW5.6 kmh SW 4.6 mph7.4 kmh 31.55 in1068.4 mb - 0.00 in0.0 mm 0.00 in0.0 mm
04:50 PM 79.9°F26.6°C 69.2°F20.7°C 70% 3.5 mph SSW5.6 kmh SSW 4.6 mph7.4 kmh 31.53 in1067.7 mb - 0.00 in0.0 mm 0.00 in0.0 mm
04:55 PM 78.8°F26.0°C 69.0°F20.6°C 72% 5.8 mph SSW9.3 kmh SSW 5.8 mph9.3 kmh 31.53 in1067.7 mb - 0.00 in0.0 mm 0.00 in0.0 mm
05:00 PM 78.6°F25.9°C 69.2°F20.7°C 73% 3.5 mph SW5.6 kmh SW 3.5 mph5.6 kmh 31.53 in1067.7 mb - 0.00 in0.0 mm 0.00 in0.0 mm
05:10 PM 79.2°F26.2°C 69.4°F20.8°C 72% 3.5 mph SW5.6 kmh SW 4.6 mph7.4 kmh 31.51 in1067.1 mb - 0.00 in0.0 mm 0.00 in0.0 mm
05:15 PM 79.2°F26.2°C 69.4°F20.8°C 72% 2.3 mph SSW3.7 kmh SSW 4.6 mph7.4 kmh 31.53 in1067.7 mb - 0.00 in0.0 mm 0.00 in0.0 mm
05:20 PM 79.0°F26.1°C 68.8°F20.4°C 71% 3.5 mph SSW5.6 kmh SSW 4.6 mph7.4 kmh 31.53 in1067.7 mb - 0.00 in0.0 mm 0.00 in0.0 mm
05:25 PM 78.5°F25.8°C 67.5°F19.7°C 69% 3.5 mph SW5.6 kmh SW 3.5 mph5.6 kmh 31.53 in1067.7 mb - 0.00 in0.0 mm 0.00 in0.0 mm
05:30 PM 78.6°F25.9°C 68.8°F20.4°C 72% 2.3 mph SW3.7 kmh SW 2.3 mph3.7 kmh 31.56 in1068.7 mb - 0.00 in0.0 mm 0.00 in0.0 mm
05:35 PM 78.5°F25.8°C 68.3°F20.2°C 71% 2.3 mph SSW3.7 kmh SSW 2.3 mph3.7 kmh 31.56 in1068.7 mb - 0.00 in0.0 mm 0.00 in0.0 mm
05:40 PM 78.3°F25.7°C 68.6°F20.3°C 72% 2.3 mph SSW3.7 kmh SSW 2.3 mph3.7 kmh 31.57 in1069.1 mb - 0.00 in0.0 mm 0.00 in0.0 mm
05:45 PM 78.2°F25.7°C 68.1°F20.1°C 71% 2.3 mph W3.7 kmh W 2.3 mph3.7 kmh 31.57 in1069.1 mb - 0.00 in0.0 mm 0.00 in0.0 mm
05:50 PM 77.7°F25.4°C 69.2°F20.7°C 75% 2.3 mph SSW3.7 kmh SSW 3.5 mph5.6 kmh 31.58 in1069.4 mb - 0.00 in0.0 mm 0.00 in0.0 mm
05:55 PM 77.2°F25.1°C 68.7°F20.4°C 75% 3.5 mph WSW5.6 kmh WSW 3.5 mph5.6 kmh 31.60 in1070.1 mb - 0.00 in0.0 mm 0.00 in0.0 mm
06:00 PM 77.0°F25.0°C 69.2°F20.7°C 77% 3.5 mph SSW5.6 kmh SSW 3.5 mph5.6 kmh 31.60 in1070.1 mb - 0.00 in0.0 mm 0.00 in0.0 mm
06:10 PM 76.9°F24.9°C 68.7°F20.4°C 76% 2.3 mph SW3.7 kmh SW 3.5 mph5.6 kmh 31.66 in1072.1 mb - 0.00 in0.0 mm 0.00 in0.0 mm
06:15 PM 76.8°F24.9°C 69.4°F20.8°C 78% 2.3 mph WSW3.7 kmh WSW 3.5 mph5.6 kmh 31.68 in1072.8 mb - 0.00 in0.0 mm 0.00 in0.0 mm
06:20 PM 77.0°F25.0°C 69.6°F20.9°C 78% 1.2 mph SW1.9 kmh SW 1.2 mph1.9 kmh 31.68 in1072.8 mb - 0.00 in0.0 mm 0.00 in0.0 mm
06:25 PM 77.0°F25.0°C 68.8°F20.4°C 76% 2.3 mph SSW3.7 kmh SSW 2.3 mph3.7 kmh 31.68 in1072.8 mb - 0.00 in0.0 mm 0.00 in0.0 mm
06:30 PM 77.0°F25.0°C 68.8°F20.4°C 76% 2.3 mph SSW3.7 kmh SSW 3.5 mph5.6 kmh 31.67 in1072.5 mb - 0.00 in0.0 mm 0.00 in0.0 mm
06:35 PM 77.0°F25.0°C 69.2°F20.7°C 77% 2.3 mph S3.7 kmh S 2.3 mph3.7 kmh 31.67 in1072.5 mb - 0.00 in0.0 mm 0.00 in0.0 mm
06:40 PM 76.7°F24.8°C 69.7°F20.9°C 79% 1.2 mph SW1.9 kmh SW 2.3 mph3.7 kmh 31.73 in1074.5 mb - 0.00 in0.0 mm 0.00 in0.0 mm
06:45 PM 76.5°F24.7°C 69.8°F21.0°C 80% 2.3 mph WSW3.7 kmh WSW 2.3 mph3.7 kmh 31.73 in1074.5 mb - 0.00 in0.0 mm 0.00 in0.0 mm
06:50 PM 76.2°F24.6°C 69.9°F21.1°C 81% Calm Calm 3.5 mph5.6 kmh 31.74 in1074.8 mb - 0.00 in0.0 mm 0.00 in0.0 mm
06:55 PM 75.9°F24.4°C 69.3°F20.7°C 80% 2.3 mph S3.7 kmh S 2.3 mph3.7 kmh 31.75 in1075.2 mb - 0.00 in0.0 mm 0.00 in0.0 mm
07:00 PM 75.6°F24.2°C 69.7°F20.9°C 82% 2.3 mph SW3.7 kmh SW 2.3 mph3.7 kmh 31.75 in1075.2 mb - 0.00 in0.0 mm 0.00 in0.0 mm
07:10 PM 75.0°F23.9°C 69.8°F21.0°C 84% 1.2 mph SW1.9 kmh SW 1.2 mph1.9 kmh 31.79 in1076.5 mb - 0.00 in0.0 mm 0.00 in0.0 mm
07:15 PM 74.7°F23.7°C 69.5°F20.8°C 84% 1.2 mph NNW1.9 kmh NNW 1.2 mph1.9 kmh 31.85 in1078.6 mb - 0.00 in0.0 mm 0.00 in0.0 mm
07:20 PM 74.2°F23.4°C 69.4°F20.8°C 85% 1.2 mph N1.9 kmh N 1.2 mph1.9 kmh 31.85 in1078.6 mb - 0.00 in0.0 mm 0.00 in0.0 mm
07:25 PM 74.0°F23.3°C 69.9°F21.1°C 87% Calm Calm -- 31.84 in1078.2 mb - 0.00 in0.0 mm 0.00 in0.0 mm
07:30 PM 73.6°F23.1°C 69.5°F20.8°C 87% Calm Calm -- 31.80 in1076.9 mb - 0.00 in0.0 mm 0.00 in0.0 mm
07:35 PM 73.2°F22.9°C 69.1°F20.6°C 87% Calm Calm -- 31.80 in1076.9 mb - 0.00 in0.0 mm 0.00 in0.0 mm
07:40 PM 73.1°F22.8°C 69.3°F20.7°C 88% Calm Calm -- 31.77 in1075.9 mb - 0.00 in0.0 mm 0.00 in0.0 mm
07:45 PM 72.5°F22.5°C 69.4°F20.8°C 90% Calm Calm 1.2 mph1.9 kmh 31.77 in1075.9 mb - 0.00 in0.0 mm 0.00 in0.0 mm
07:50 PM 72.5°F22.5°C 70.0°F21.1°C 92% Calm Calm -- 31.84 in1078.2 mb - 0.00 in0.0 mm 0.00 in0.0 mm
07:55 PM 72.5°F22.5°C 70.0°F21.1°C 92% Calm Calm -- 31.87 in1079.2 mb - 0.00 in0.0 mm 0.00 in0.0 mm
08:00 PM 72.4°F22.4°C 70.3°F21.3°C 93% Calm Calm -- 31.87 in1079.2 mb - 0.00 in0.0 mm 0.00 in0.0 mm
08:10 PM 72.2°F22.3°C 70.7°F21.5°C 95% Calm Calm -- 31.88 in1079.6 mb - 0.00 in0.0 mm 0.00 in0.0 mm
08:15 PM 72.0°F22.2°C 70.5°F21.4°C 95% Calm Calm -- 31.89 in1079.9 mb - 0.00 in0.0 mm 0.00 in0.0 mm
08:20 PM 71.8°F22.1°C 70.3°F21.3°C 95% Calm Calm -- 31.89 in1079.9 mb - 0.00 in0.0 mm 0.00 in0.0 mm
08:25 PM 71.6°F22.0°C 70.1°F21.2°C 95% Calm Calm -- 31.89 in1079.9 mb - 0.00 in0.0 mm 0.00 in0.0 mm
08:30 PM 71.6°F22.0°C 70.1°F21.2°C 95% Calm Calm -- 31.89 in1079.9 mb - 0.00 in0.0 mm 0.00 in0.0 mm
08:35 PM 71.6°F22.0°C 70.1°F21.2°C 95% Calm Calm -- 31.89 in1079.9 mb - 0.00 in0.0 mm 0.00 in0.0 mm
08:40 PM 71.6°F22.0°C 69.8°F21.0°C 94% Calm Calm -- 31.89 in1079.9 mb - 0.00 in0.0 mm 0.00 in0.0 mm
08:45 PM 71.6°F22.0°C 69.8°F21.0°C 94% Calm Calm -- 31.89 in1079.9 mb - 0.00 in0.0 mm 0.00 in0.0 mm
08:50 PM 71.4°F21.9°C 69.6°F20.9°C 94% Calm Calm -- 31.89 in1079.9 mb - 0.00 in0.0 mm 0.00 in0.0 mm
08:55 PM 71.3°F21.8°C 69.8°F21.0°C 95% Calm Calm -- 31.89 in1079.9 mb - 0.00 in0.0 mm 0.00 in0.0 mm
09:00 PM 70.9°F21.6°C 69.7°F20.9°C 96% Calm Calm -- 31.89 in1079.9 mb - 0.00 in0.0 mm 0.00 in0.0 mm
09:10 PM 70.4°F21.3°C 69.2°F20.7°C 96% Calm Calm -- 31.87 in1079.2 mb - 0.00 in0.0 mm 0.00 in0.0 mm
09:15 PM 70.1°F21.2°C 69.2°F20.7°C 97% Calm Calm -- 31.87 in1079.2 mb - 0.00 in0.0 mm 0.00 in0.0 mm
09:20 PM 69.8°F21.0°C 69.2°F20.7°C 98% Calm Calm -- 31.87 in1079.2 mb - 0.00 in0.0 mm 0.00 in0.0 mm
09:25 PM 69.5°F20.8°C 69.2°F20.7°C 99% Calm Calm -- 31.87 in1079.2 mb - 0.00 in0.0 mm 0.00 in0.0 mm
09:30 PM 69.3°F20.7°C 69.0°F20.6°C 99% Calm Calm -- 31.89 in1079.9 mb - 0.00 in0.0 mm 0.00 in0.0 mm
09:35 PM 69.1°F20.6°C 68.8°F20.4°C 99% Calm Calm -- 31.89 in1079.9 mb - 0.00 in0.0 mm 0.00 in0.0 mm
09:40 PM 69.1°F20.6°C 68.8°F20.4°C 99% Calm Calm -- 31.89 in1079.9 mb - 0.00 in0.0 mm 0.00 in0.0 mm
09:45 PM 68.7°F20.4°C 68.4°F20.2°C 99% Calm Calm -- 31.89 in1079.9 mb - 0.00 in0.0 mm 0.00 in0.0 mm
09:50 PM 68.7°F20.4°C 68.4°F20.2°C 99% Calm Calm -- 31.89 in1079.9 mb - 0.00 in0.0 mm 0.00 in0.0 mm
09:55 PM 68.6°F20.3°C 68.3°F20.2°C 99% Calm Calm -- 31.89 in1079.9 mb - 0.00 in0.0 mm 0.00 in0.0 mm
10:00 PM 68.6°F20.3°C 68.3°F20.2°C 99% Calm Calm -- 31.89 in1079.9 mb - 0.00 in0.0 mm 0.00 in0.0 mm
10:10 PM 67.8°F19.9°C 67.6°F19.8°C 99% Calm Calm -- 31.89 in1079.9 mb - 0.00 in0.0 mm 0.00 in0.0 mm
10:15 PM 67.7°F19.8°C 67.4°F19.7°C 99% Calm Calm -- 31.89 in1079.9 mb - 0.00 in0.0 mm 0.00 in0.0 mm
10:20 PM 67.5°F19.7°C 67.2°F19.6°C 99% Calm Calm -- 31.89 in1079.9 mb - 0.00 in0.0 mm 0.00 in0.0 mm
10:25 PM 67.2°F19.6°C 66.9°F19.4°C 99% Calm Calm -- 31.89 in1079.9 mb - 0.00 in0.0 mm 0.00 in0.0 mm
10:30 PM 67.1°F19.5°C 66.8°F19.3°C 99% Calm Calm -- 31.89 in1079.9 mb - 0.00 in0.0 mm 0.00 in0.0 mm
10:35 PM 67.1°F19.5°C 66.8°F19.3°C 99% Calm Calm -- 31.89 in1079.9 mb - 0.00 in0.0 mm 0.00 in0.0 mm
10:40 PM 66.8°F19.3°C 66.5°F19.2°C 99% Calm Calm -- 31.89 in1079.9 mb - 0.00 in0.0 mm 0.00 in0.0 mm
10:45 PM 66.6°F19.2°C 66.3°F19.1°C 99% Calm Calm -- 31.89 in1079.9 mb - 0.00 in0.0 mm 0.00 in0.0 mm
10:50 PM 66.6°F19.2°C 66.3°F19.1°C 99% Calm Calm -- 31.89 in1079.9 mb - 0.00 in0.0 mm 0.00 in0.0 mm
10:55 PM 66.3°F19.1°C 66.0°F18.9°C 99% Calm Calm -- 31.89 in1079.9 mb - 0.00 in0.0 mm 0.00 in0.0 mm
11:00 PM 66.2°F19.0°C 65.9°F18.8°C 99% Calm Calm -- 31.89 in1079.9 mb - 0.00 in0.0 mm 0.00 in0.0 mm
11:10 PM 65.9°F18.8°C 65.6°F18.7°C 99% Calm Calm -- 31.89 in1079.9 mb - 0.00 in0.0 mm 0.00 in0.0 mm
11:15 PM 65.9°F18.8°C 65.6°F18.7°C 99% Calm Calm -- 31.89 in1079.9 mb - 0.00 in0.0 mm 0.00 in0.0 mm
11:20 PM 65.9°F18.8°C 65.6°F18.7°C 99% Calm Calm -- 31.89 in1079.9 mb - 0.00 in0.0 mm 0.00 in0.0 mm
11:25 PM 66.0°F18.9°C 65.7°F18.7°C 99% Calm Calm -- 31.89 in1079.9 mb - 0.00 in0.0 mm 0.00 in0.0 mm
11:30 PM 66.0°F18.9°C 65.4°F18.6°C 98% Calm Calm -- 31.89 in1079.9 mb - 0.00 in0.0 mm 0.00 in0.0 mm
11:35 PM 65.9°F18.8°C 65.3°F18.5°C 98% Calm Calm -- 31.89 in1079.9 mb - 0.00 in0.0 mm 0.00 in0.0 mm
11:40 PM 65.5°F18.6°C 64.9°F18.3°C 98% Calm Calm -- 31.89 in1079.9 mb - 0.00 in0.0 mm 0.00 in0.0 mm
11:45 PM 65.5°F18.6°C 64.6°F18.1°C 97% Calm Calm -- 31.89 in1079.9 mb - 0.00 in0.0 mm 0.00 in0.0 mm
11:50 PM 65.7°F18.7°C 64.8°F18.2°C 97% Calm Calm -- 31.89 in1079.9 mb - 0.00 in0.0 mm 0.00 in0.0 mm
11:55 PM 66.0°F18.9°C 64.5°F18.1°C 95% Calm Calm -- 31.89 in1079.9 mb - 0.00 in0.0 mm 0.00 in0.0 mm